createdAt,value
2022-10-16T00:02:25.447Z,22.80
2022-10-16T00:04:53.269Z,24.10
2022-10-16T00:07:21.065Z,18.20
2022-10-16T00:09:49.012Z,16.03
2022-10-16T00:12:16.775Z,17.93
2022-10-16T00:14:44.962Z,20.17
2022-10-16T00:17:14.072Z,17.50
2022-10-16T00:19:42.116Z,19.50
2022-10-16T00:22:28.355Z,19.30
2022-10-16T00:24:56.420Z,16.77
2022-10-16T00:27:24.282Z,17.17
2022-10-16T00:29:52.757Z,15.07
2022-10-16T00:32:22.983Z,17.80
2022-10-16T00:34:50.884Z,23.20
2022-10-16T00:37:18.696Z,23.00
2022-10-16T00:39:46.500Z,22.20
2022-10-16T00:42:17.577Z,16.93
2022-10-16T00:44:57.697Z,15.00
2022-10-16T00:47:31.089Z,13.63
2022-10-16T00:50:04.161Z,18.10
2022-10-16T00:52:32.244Z,19.00
2022-10-16T00:55:00.787Z,13.80
2022-10-16T00:57:28.821Z,15.33
2022-10-16T00:59:56.936Z,14.73
2022-10-16T01:02:24.918Z,15.30
2022-10-16T01:04:56.065Z,18.93
2022-10-16T01:07:36.830Z,17.00
2022-10-16T01:10:13.987Z,17.00
2022-10-16T01:12:47.994Z,16.90
2022-10-16T01:15:23.725Z,16.90
2022-10-16T01:17:59.243Z,16.93
2022-10-16T01:20:32.037Z,18.93
2022-10-16T01:23:17.041Z,17.30
2022-10-16T01:26:02.085Z,17.30
2022-10-16T01:28:38.729Z,20.33
2022-10-16T01:31:07.433Z,16.13
2022-10-16T01:33:42.019Z,16.80
2022-10-16T01:36:13.844Z,15.80
2022-10-16T01:38:43.331Z,21.83
2022-10-16T01:41:14.923Z,22.30
2022-10-16T01:43:48.420Z,18.43
2022-10-16T01:46:20.391Z,23.13
2022-10-16T01:48:48.928Z,16.43
2022-10-16T01:51:19.036Z,17.57
2022-10-16T01:53:51.141Z,21.37
2022-10-16T01:56:21.359Z,18.53
2022-10-16T01:58:54.573Z,19.03
2022-10-16T02:01:25.293Z,19.77
2022-10-16T02:03:56.274Z,13.70
2022-10-16T02:06:24.403Z,18.80
2022-10-16T02:08:52.265Z,15.83
2022-10-16T02:11:20.039Z,14.87
2022-10-16T02:13:54.680Z,16.27
2022-10-16T02:16:22.527Z,17.20
2022-10-16T02:18:50.656Z,15.40
2022-10-16T02:21:25.504Z,15.57
2022-10-16T02:24:00.497Z,15.47
2022-10-16T02:26:33.249Z,21.83
2022-10-16T02:29:08.406Z,15.13
2022-10-16T02:31:42.971Z,15.17
2022-10-16T02:34:13.177Z,16.67
2022-10-16T02:36:42.869Z,15.10
2022-10-16T02:39:11.650Z,15.03
2022-10-16T02:41:40.354Z,16.07
2022-10-16T02:44:09.492Z,19.50
2022-10-16T02:46:37.250Z,18.67
2022-10-16T02:49:05.461Z,16.77
2022-10-16T02:51:33.246Z,16.83
2022-10-16T02:54:00.992Z,14.50
2022-10-16T02:56:28.769Z,14.33
2022-10-16T02:58:56.521Z,18.13
2022-10-16T03:01:25.891Z,14.87
2022-10-16T03:03:53.784Z,15.47
2022-10-16T03:06:21.593Z,19.77
2022-10-16T03:08:49.379Z,16.03
2022-10-16T03:11:17.189Z,16.67
2022-10-16T03:13:45.066Z,16.03
2022-10-16T03:16:13.006Z,16.33
2022-10-16T03:18:42.140Z,19.33
2022-10-16T03:21:09.990Z,16.30
2022-10-16T03:23:37.761Z,18.53
2022-10-16T03:26:05.656Z,15.60
2022-10-16T03:28:33.624Z,15.80
2022-10-16T03:31:01.446Z,16.30
2022-10-16T03:33:29.379Z,16.00
2022-10-16T03:35:58.507Z,18.43
2022-10-16T03:38:26.347Z,18.20
2022-10-16T03:40:54.386Z,15.80
2022-10-16T03:43:22.251Z,12.67
2022-10-16T03:45:51.895Z,18.63
2022-10-16T03:48:19.755Z,16.77
2022-10-16T03:50:48.977Z,18.80
2022-10-16T03:53:18.142Z,13.83
2022-10-16T03:55:46.168Z,20.50
2022-10-16T03:58:14.065Z,16.13
2022-10-16T04:00:42.804Z,16.60
2022-10-16T04:03:10.952Z,19.13
2022-10-16T04:05:38.778Z,17.30
2022-10-16T04:08:06.708Z,18.73
2022-10-16T04:10:35.850Z,16.70
2022-10-16T04:13:03.912Z,15.13
2022-10-16T04:15:31.836Z,20.00
2022-10-16T04:17:59.607Z,16.23
2022-10-16T04:20:27.389Z,14.27
2022-10-16T04:22:55.237Z,17.23
2022-10-16T04:25:23.022Z,17.47
2022-10-16T04:27:54.337Z,16.37
2022-10-16T04:30:22.443Z,16.77
2022-10-16T04:32:50.906Z,14.10
2022-10-16T04:35:19.317Z,17.43
2022-10-16T04:37:47.291Z,17.10
2022-10-16T04:40:15.906Z,15.87
2022-10-16T04:42:43.711Z,19.90
2022-10-16T04:45:16.293Z,16.83
2022-10-16T04:47:45.029Z,16.00
2022-10-16T04:50:12.820Z,15.90
2022-10-16T04:52:40.644Z,13.43
2022-10-16T04:55:09.401Z,14.50
2022-10-16T04:57:37.242Z,15.57
2022-10-16T05:00:05.689Z,16.90
2022-10-16T05:02:34.839Z,16.20
2022-10-16T05:05:02.853Z,15.27
2022-10-16T05:07:30.615Z,14.40
2022-10-16T05:09:58.939Z,19.63
2022-10-16T05:12:26.769Z,15.97
2022-10-16T05:14:59.273Z,15.73
2022-10-16T05:17:27.446Z,15.93
2022-10-16T05:19:57.009Z,16.93
2022-10-16T05:22:24.910Z,14.63
2022-10-16T05:24:52.954Z,19.70
2022-10-16T05:27:20.748Z,16.57
2022-10-16T05:29:49.657Z,12.30
2022-10-16T05:32:18.368Z,17.00
2022-10-16T05:34:46.978Z,13.10
2022-10-16T05:37:16.121Z,17.47
2022-10-16T05:39:43.872Z,15.20
2022-10-16T05:42:11.656Z,19.30
2022-10-16T05:44:39.459Z,20.03
2022-10-16T05:47:07.256Z,17.20
2022-10-16T05:49:41.305Z,15.67
2022-10-16T05:52:15.344Z,17.57
2022-10-16T05:54:46.973Z,16.90
2022-10-16T05:57:14.798Z,21.97
2022-10-16T05:59:42.811Z,18.90
2022-10-16T06:02:14.830Z,15.20
2022-10-16T06:04:42.689Z,13.33
2022-10-16T06:07:10.550Z,17.40
2022-10-16T06:09:38.405Z,15.00
2022-10-16T06:12:07.606Z,16.10
2022-10-16T06:14:35.491Z,18.60
2022-10-16T06:17:03.404Z,15.83
2022-10-16T06:19:32.417Z,16.67
2022-10-16T06:22:00.197Z,15.83
2022-10-16T06:24:28.144Z,12.67
2022-10-16T06:26:56.171Z,18.53
2022-10-16T06:29:26.884Z,17.50
2022-10-16T06:31:54.899Z,18.57
2022-10-16T06:34:22.708Z,16.40
2022-10-16T06:36:50.493Z,16.13
2022-10-16T06:39:18.260Z,18.47
2022-10-16T06:41:46.032Z,19.43
2022-10-16T06:44:17.235Z,16.57
2022-10-16T06:46:46.428Z,17.80
2022-10-16T06:49:14.376Z,19.07
2022-10-16T06:51:43.451Z,14.13
2022-10-16T06:54:11.720Z,18.40
2022-10-16T06:56:39.532Z,19.03
2022-10-16T06:59:07.338Z,13.87
2022-10-16T07:01:35.343Z,15.23
2022-10-16T07:04:04.827Z,19.50
2022-10-16T07:06:34.061Z,15.73
2022-10-16T07:09:04.966Z,19.37
2022-10-16T07:11:33.076Z,17.63
2022-10-16T07:14:01.338Z,16.43
2022-10-16T07:16:31.514Z,30.20
2022-10-16T07:19:02.127Z,18.03
2022-10-16T07:21:36.311Z,18.10
2022-10-16T07:24:04.883Z,15.93
2022-10-16T07:26:35.396Z,17.93
2022-10-16T07:29:04.395Z,18.23
2022-10-16T07:31:32.377Z,14.60
2022-10-16T07:34:01.095Z,18.93
2022-10-16T07:36:29.443Z,22.90
2022-10-16T07:39:00.292Z,16.23
2022-10-16T07:41:29.401Z,18.17
2022-10-16T07:44:01.118Z,18.70
2022-10-16T07:46:29.536Z,13.90
2022-10-16T07:48:57.357Z,16.73
2022-10-16T07:51:26.930Z,14.90
2022-10-16T07:53:55.208Z,17.20
2022-10-16T07:56:24.586Z,14.63
2022-10-16T07:58:53.246Z,15.87
2022-10-16T08:01:21.390Z,13.60
2022-10-16T08:03:50.953Z,13.50
2022-10-16T08:06:23.525Z,13.27
2022-10-16T08:08:54.772Z,16.27
2022-10-16T08:11:24.346Z,18.43
2022-10-16T08:13:52.181Z,18.60
2022-10-16T08:16:19.991Z,13.40
2022-10-16T08:18:48.200Z,15.67
2022-10-16T08:21:20.475Z,13.60
2022-10-16T08:23:54.533Z,15.70
2022-10-16T08:26:28.288Z,17.20
2022-10-16T08:28:56.342Z,22.80
2022-10-16T08:31:24.640Z,15.17
2022-10-16T08:33:53.273Z,14.57
2022-10-16T08:36:21.349Z,14.77
2022-10-16T08:38:50.685Z,15.67
2022-10-16T08:41:38.137Z,17.10
2022-10-16T08:44:30.720Z,16.70
2022-10-16T08:47:06.849Z,16.13
2022-10-16T08:49:34.774Z,18.47
2022-10-16T08:52:02.640Z,16.27
2022-10-16T08:54:35.613Z,15.37
2022-10-16T08:57:13.110Z,17.30
2022-10-16T08:59:40.904Z,18.83
2022-10-16T09:02:26.291Z,16.03
2022-10-16T09:05:18.936Z,18.20
2022-10-16T09:10:48.118Z,13.40
2022-10-16T09:13:25.474Z,15.63
2022-10-16T09:16:00.742Z,16.97
2022-10-16T09:18:36.754Z,16.10
2022-10-16T09:21:12.974Z,16.10
2022-10-16T09:23:40.847Z,17.20
2022-10-16T09:26:13.864Z,13.60
2022-10-16T09:28:43.916Z,14.30
2022-10-16T09:31:18.387Z,15.17
2022-10-16T09:33:49.313Z,16.03
2022-10-16T09:36:17.384Z,13.70
2022-10-16T09:38:45.175Z,13.37
2022-10-16T09:41:19.813Z,13.00
2022-10-16T09:43:56.703Z,14.90
2022-10-16T09:46:29.512Z,15.10
2022-10-16T09:48:59.781Z,14.77
2022-10-16T09:51:30.379Z,15.17
2022-10-16T09:54:01.100Z,12.93
2022-10-16T09:56:30.837Z,14.23
2022-10-16T09:59:01.824Z,14.40
2022-10-16T10:01:37.192Z,11.87
2022-10-16T10:04:05.556Z,18.23
2022-10-16T10:06:38.851Z,11.80
2022-10-16T10:09:16.183Z,14.97
2022-10-16T10:11:55.819Z,13.70
2022-10-16T10:14:28.951Z,16.13
2022-10-16T10:17:12.721Z,14.03
2022-10-16T10:19:41.989Z,14.83
2022-10-16T10:22:21.482Z,13.13
2022-10-16T10:24:58.107Z,14.70
2022-10-16T10:27:33.822Z,39.57
2022-10-16T10:30:08.499Z,33.23
2022-10-16T10:32:46.002Z,35.37
2022-10-16T10:35:20.966Z,33.40
2022-10-16T10:38:01.634Z,20.37
2022-10-16T10:40:39.986Z,12.37
2022-10-16T10:43:17.060Z,12.53
2022-10-16T10:45:49.053Z,14.33
2022-10-16T10:48:30.082Z,12.40
2022-10-16T10:51:02.713Z,12.10
2022-10-16T10:53:43.261Z,14.37
2022-10-16T10:56:25.132Z,11.87
2022-10-16T10:59:10.900Z,25.03
2022-10-16T11:01:50.515Z,14.47
2022-10-16T11:04:48.309Z,20.30
2022-10-16T11:07:21.936Z,15.33
2022-10-16T11:09:54.605Z,16.87
2022-10-16T11:12:25.382Z,15.73
2022-10-16T11:15:00.508Z,16.20
2022-10-16T11:17:34.088Z,16.17
2022-10-16T11:20:13.782Z,16.00
2022-10-16T11:22:46.005Z,13.23
2022-10-16T11:25:16.985Z,14.93
2022-10-16T11:27:49.557Z,13.60
2022-10-16T11:30:22.101Z,15.00
2022-10-16T11:33:04.781Z,13.00
2022-10-16T11:35:41.998Z,18.63
2022-10-16T11:38:17.191Z,24.80
2022-10-16T11:40:49.584Z,25.40
2022-10-16T11:43:23.948Z,14.10
2022-10-16T11:45:54.593Z,13.23
2022-10-16T11:48:29.500Z,13.70
2022-10-16T11:51:04.510Z,13.57
2022-10-16T11:53:44.589Z,14.03
2022-10-16T11:56:15.654Z,17.53
2022-10-16T11:58:52.558Z,16.33
2022-10-16T12:01:29.195Z,14.83
2022-10-16T12:04:08.346Z,17.00
2022-10-16T12:06:42.713Z,24.40
2022-10-16T12:09:17.350Z,25.67
2022-10-16T12:11:45.248Z,16.63
2022-10-16T12:14:51.731Z,23.73
2022-10-16T12:17:28.515Z,24.40
2022-10-16T12:20:02.685Z,15.50
2022-10-16T12:22:32.320Z,17.80
2022-10-16T12:25:00.564Z,22.00
2022-10-16T12:27:31.949Z,19.90
2022-10-16T12:30:02.254Z,19.90
2022-10-16T12:32:46.357Z,21.40
2022-10-16T12:35:23.914Z,14.73
2022-10-16T12:37:53.217Z,19.10
2022-10-16T12:40:30.418Z,14.57
2022-10-16T12:42:58.589Z,15.20
2022-10-16T12:45:32.192Z,17.67
2022-10-16T12:48:02.289Z,18.20
2022-10-16T12:50:35.151Z,19.13
2022-10-16T12:53:05.849Z,18.17
2022-10-16T12:55:45.399Z,22.70
2022-10-16T12:58:33.083Z,19.80
2022-10-16T13:01:13.031Z,43.27
2022-10-16T13:04:11.541Z,52.87
2022-10-16T13:06:48.834Z,64.77
2022-10-16T13:09:32.429Z,34.70
2022-10-16T13:12:17.861Z,23.30
2022-10-16T13:15:04.043Z,18.30
2022-10-16T13:17:39.752Z,16.77
2022-10-16T13:20:20.405Z,14.00
2022-10-16T13:22:57.862Z,14.10
2022-10-16T13:25:37.230Z,18.33
2022-10-16T13:28:07.413Z,21.63
2022-10-16T13:30:40.683Z,21.43
2022-10-16T13:33:15.244Z,25.93
2022-10-16T13:35:51.741Z,18.47
2022-10-16T13:38:23.575Z,25.77
2022-10-16T13:40:54.483Z,35.23
2022-10-16T13:43:26.855Z,23.97
2022-10-16T13:45:57.020Z,29.87
2022-10-16T13:48:25.141Z,32.77
2022-10-16T13:51:17.779Z,25.73
2022-10-16T13:53:47.959Z,20.07
2022-10-16T13:56:18.302Z,19.40
2022-10-16T13:58:46.708Z,18.23
2022-10-16T14:01:20.152Z,18.00
2022-10-16T14:03:49.385Z,19.00
2022-10-16T14:06:22.936Z,17.57
2022-10-16T14:09:01.037Z,15.70
2022-10-16T14:11:29.181Z,15.77
2022-10-16T14:13:57.600Z,13.73
2022-10-16T14:16:27.737Z,16.00
2022-10-16T14:19:00.144Z,31.37
2022-10-16T14:21:28.620Z,15.30
2022-10-16T14:23:58.408Z,22.30
2022-10-16T14:26:28.971Z,13.50
2022-10-16T14:29:12.270Z,15.27
2022-10-16T14:31:42.171Z,19.50
2022-10-16T14:34:26.437Z,20.50
2022-10-16T14:36:54.279Z,20.87
2022-10-16T14:39:25.905Z,18.37
2022-10-16T14:41:54.702Z,12.23
2022-10-16T14:44:28.575Z,15.13
2022-10-16T14:46:56.686Z,15.90
2022-10-16T14:49:28.938Z,17.63
2022-10-16T14:51:57.476Z,15.53
2022-10-16T14:54:26.749Z,14.70
2022-10-16T14:56:56.470Z,15.17
2022-10-16T14:59:30.284Z,17.87
2022-10-16T15:01:58.270Z,16.40
2022-10-16T15:04:28.316Z,12.47
2022-10-16T15:06:56.127Z,14.50
2022-10-16T15:09:24.253Z,10.40
2022-10-16T15:11:53.489Z,10.80
2022-10-16T15:14:21.404Z,12.63
2022-10-16T15:16:49.184Z,14.07
2022-10-16T15:19:17.248Z,13.77
2022-10-16T15:21:45.286Z,13.57
2022-10-16T15:24:18.028Z,15.03
2022-10-16T15:26:49.777Z,10.67
2022-10-16T15:29:19.189Z,12.43
2022-10-16T15:31:49.513Z,12.40
2022-10-16T15:34:19.246Z,12.20
2022-10-16T15:36:51.770Z,13.83
2022-10-16T15:39:21.139Z,11.97
2022-10-16T15:41:52.210Z,10.40
2022-10-16T15:44:23.881Z,12.17
2022-10-16T15:46:51.674Z,14.57
2022-10-16T15:49:19.535Z,15.87
2022-10-16T15:51:47.751Z,11.50
2022-10-16T15:54:16.173Z,13.93
2022-10-16T15:56:43.966Z,15.13
2022-10-16T15:59:11.757Z,14.50
2022-10-16T16:01:41.576Z,10.70
2022-10-16T16:04:15.232Z,13.20
2022-10-16T16:06:45.736Z,10.13
2022-10-16T16:09:14.456Z,15.27
2022-10-16T16:11:43.187Z,18.17
2022-10-16T16:14:13.816Z,22.77
2022-10-16T16:16:45.073Z,14.43
2022-10-16T16:19:12.877Z,16.07
2022-10-16T16:21:42.564Z,16.37
2022-10-16T16:24:10.461Z,19.50
2022-10-16T16:26:40.815Z,17.73
2022-10-16T16:29:09.054Z,15.83
2022-10-16T16:31:36.883Z,14.83
2022-10-16T16:34:06.204Z,16.43
2022-10-16T16:36:34.511Z,15.50
2022-10-16T16:39:02.573Z,20.93
2022-10-16T16:41:31.818Z,18.93
2022-10-16T16:44:05.131Z,15.40
2022-10-16T16:46:34.042Z,20.60
2022-10-16T16:49:02.848Z,19.20
2022-10-16T16:51:39.812Z,18.57
2022-10-16T16:54:09.871Z,21.10
2022-10-16T16:56:43.410Z,18.93
2022-10-16T16:59:14.782Z,16.80
2022-10-16T17:01:43.064Z,16.30
2022-10-16T17:04:12.439Z,19.20
2022-10-16T17:06:42.250Z,30.47
2022-10-16T17:09:13.682Z,23.53
2022-10-16T17:11:43.884Z,47.97
2022-10-16T17:14:11.728Z,44.83
2022-10-16T17:16:40.935Z,38.00
2022-10-16T17:19:12.522Z,27.53
2022-10-16T17:21:42.645Z,25.70
2022-10-16T17:24:11.357Z,25.20
2022-10-16T17:26:41.486Z,22.57
2022-10-16T17:29:12.478Z,21.77
2022-10-16T17:31:41.457Z,32.07
2022-10-16T17:34:14.261Z,29.43
2022-10-16T17:36:46.797Z,23.70
2022-10-16T17:39:18.043Z,21.80
2022-10-16T17:41:46.652Z,24.97
2022-10-16T17:44:19.829Z,29.50
2022-10-16T17:46:48.839Z,24.77
2022-10-16T17:49:17.703Z,26.40
2022-10-16T17:51:47.213Z,23.17
2022-10-16T17:54:15.507Z,30.20
2022-10-16T17:56:43.612Z,24.83
2022-10-16T17:59:12.751Z,27.30
2022-10-16T18:01:42.170Z,33.97
2022-10-16T18:04:13.084Z,30.70
2022-10-16T18:06:42.827Z,27.37
2022-10-16T18:09:14.092Z,27.10
2022-10-16T18:11:41.972Z,28.00
2022-10-16T18:14:10.138Z,30.53
2022-10-16T18:16:39.514Z,37.90
2022-10-16T18:19:07.372Z,26.30
2022-10-16T18:21:35.465Z,31.73
2022-10-16T18:24:03.342Z,27.40
2022-10-16T18:26:32.929Z,26.70
2022-10-16T18:29:02.236Z,26.43
2022-10-16T18:31:30.529Z,32.47
2022-10-16T18:33:58.986Z,29.90
2022-10-16T18:36:29.910Z,26.80
2022-10-16T18:38:58.417Z,25.30
2022-10-16T18:41:27.279Z,27.00
2022-10-16T18:43:57.258Z,24.50
2022-10-16T18:46:26.465Z,25.53
2022-10-16T18:48:54.437Z,22.77
2022-10-16T18:51:24.935Z,20.43
2022-10-16T18:53:55.376Z,20.20
2022-10-16T18:56:24.508Z,25.20
2022-10-16T18:58:53.509Z,21.43
2022-10-16T19:01:25.144Z,19.07
2022-10-16T19:03:56.883Z,22.43
2022-10-16T19:06:25.223Z,21.43
2022-10-16T19:08:54.292Z,24.07
2022-10-16T19:11:23.810Z,26.77
2022-10-16T19:13:52.575Z,25.23
2022-10-16T19:16:23.685Z,20.53
2022-10-16T19:18:53.251Z,31.00
2022-10-16T19:21:21.828Z,27.30
2022-10-16T19:23:52.710Z,24.27
2022-10-16T19:26:22.821Z,23.43
2022-10-16T19:28:53.207Z,20.60
2022-10-16T19:31:24.595Z,18.80
2022-10-16T19:33:53.728Z,20.87
2022-10-16T19:36:24.085Z,19.10
2022-10-16T19:38:54.952Z,20.67
2022-10-16T19:41:23.623Z,22.57
2022-10-16T19:43:52.135Z,19.20
2022-10-16T19:46:24.973Z,22.53
2022-10-16T19:48:56.465Z,20.60
2022-10-16T19:51:25.832Z,26.80
2022-10-16T19:53:56.359Z,22.57
2022-10-16T19:56:26.257Z,23.30
2022-10-16T19:58:55.416Z,18.20
2022-10-16T20:01:25.866Z,16.63
2022-10-16T20:03:53.986Z,21.37
2022-10-16T20:06:22.416Z,17.57
2022-10-16T20:08:52.486Z,18.83
2022-10-16T20:11:21.878Z,18.13
2022-10-16T20:13:49.956Z,19.70
2022-10-16T20:16:19.852Z,16.23
2022-10-16T20:18:50.468Z,19.37
2022-10-16T20:21:20.651Z,17.13
2022-10-16T20:23:50.300Z,18.90
2022-10-16T20:26:21.023Z,17.57
2022-10-16T20:28:49.448Z,17.50
2022-10-16T20:31:22.268Z,22.40
2022-10-16T20:33:52.440Z,18.50
2022-10-16T20:36:21.913Z,18.00
2022-10-16T20:38:49.990Z,19.47
2022-10-16T20:41:18.889Z,19.83
2022-10-16T20:43:48.701Z,20.10
2022-10-16T20:46:18.662Z,20.37
2022-10-16T20:48:47.743Z,19.20
2022-10-16T20:51:19.509Z,24.90
2022-10-16T20:53:49.033Z,20.93
2022-10-16T20:56:17.550Z,21.60
2022-10-16T20:58:46.434Z,17.57
2022-10-16T21:01:16.745Z,20.17
2022-10-16T21:03:45.632Z,19.97
2022-10-16T21:06:13.416Z,20.10
2022-10-16T21:08:43.999Z,17.70
2022-10-16T21:11:13.398Z,22.43
2022-10-16T21:13:41.545Z,19.07
2022-10-16T21:16:10.533Z,19.00
2022-10-16T21:18:42.033Z,18.27
2022-10-16T21:21:19.746Z,16.27
2022-10-16T21:23:49.441Z,19.87
2022-10-16T21:26:18.303Z,18.03
2022-10-16T21:28:46.461Z,16.00
2022-10-16T21:31:19.900Z,16.73
2022-10-16T21:33:48.292Z,18.27
2022-10-16T21:36:17.740Z,17.67
2022-10-16T21:41:18.457Z,18.60
2022-10-16T21:43:46.412Z,17.00
2022-10-16T21:46:14.969Z,17.53
2022-10-16T21:48:43.598Z,18.97
2022-10-16T21:51:12.512Z,18.40
2022-10-16T21:53:41.362Z,19.70
2022-10-16T21:56:13.868Z,18.10
2022-10-16T21:58:44.121Z,18.87
2022-10-16T22:01:13.707Z,30.13
2022-10-16T22:03:41.496Z,18.17
2022-10-16T22:06:10.598Z,17.37
2022-10-16T22:08:39.480Z,18.47
2022-10-16T22:11:10.013Z,19.83
2022-10-16T22:13:38.340Z,19.63
2022-10-16T22:16:08.616Z,17.13
2022-10-16T22:18:36.849Z,16.83
2022-10-16T22:21:06.049Z,15.77
2022-10-16T22:23:33.906Z,22.93
2022-10-16T22:26:02.368Z,19.40
2022-10-16T22:28:30.203Z,20.80
2022-10-16T22:31:01.785Z,16.27
2022-10-16T22:33:30.948Z,20.33
2022-10-16T22:36:01.310Z,18.10
2022-10-16T22:38:30.014Z,17.87
2022-10-16T22:41:02.547Z,18.03
2022-10-16T22:43:30.329Z,16.97
2022-10-16T22:46:03.516Z,22.00
2022-10-16T22:48:32.682Z,16.97
2022-10-16T22:51:00.596Z,17.37
2022-10-16T22:53:28.628Z,18.33
2022-10-16T22:55:56.428Z,25.23
2022-10-16T22:58:24.217Z,23.20
2022-10-16T23:00:52.432Z,17.40
2022-10-16T23:03:20.452Z,17.67
2022-10-16T23:05:49.676Z,18.60
2022-10-16T23:08:17.664Z,23.13
2022-10-16T23:10:47.043Z,16.70
2022-10-16T23:13:15.382Z,16.33
2022-10-16T23:15:45.236Z,21.20
2022-10-16T23:18:13.236Z,14.73
2022-10-16T23:20:41.694Z,22.00
2022-10-16T23:23:11.413Z,16.53
2022-10-16T23:25:46.989Z,21.27
2022-10-16T23:30:47.936Z,17.50
2022-10-16T23:33:15.689Z,20.40
2022-10-16T23:35:43.519Z,17.20
2022-10-16T23:38:12.656Z,18.10
2022-10-16T23:40:40.393Z,15.90
2022-10-16T23:43:08.367Z,16.97
2022-10-16T23:45:36.140Z,16.67
2022-10-16T23:48:03.936Z,21.73
2022-10-16T23:50:31.761Z,18.03
2022-10-16T23:52:59.511Z,20.47
2022-10-16T23:55:28.776Z,17.13
2022-10-16T23:57:56.666Z,18.20
